sensor_id;sensor_type;location;lat;lon;timestamp;P1;durP1;ratioP1;P2;durP2;ratioP2
68375;SDS011;55318;52.068;5.188;2023-03-31T00:00:50;4.91;;;2.5;;
68375;SDS011;55318;52.068;5.188;2023-03-31T00:02:27;4.41;;;1.6;;
68375;SDS011;55318;52.068;5.188;2023-03-31T00:04:03;6.1;;;1.7;;
68375;SDS011;55318;52.068;5.188;2023-03-31T00:07:15;5.2;;;1.7;;
68375;SDS011;55318;52.068;5.188;2023-03-31T00:08:52;8.5;;;2.1;;
68375;SDS011;55318;52.068;5.188;2023-03-31T00:10:29;5.0;;;2.31;;
68375;SDS011;55318;52.068;5.188;2023-03-31T00:12:07;5.2;;;1.9;;
68375;SDS011;55318;52.068;5.188;2023-03-31T00:15:19;4.91;;;1.6;;
68375;SDS011;55318;52.068;5.188;2023-03-31T00:16:55;2.7;;;1.0;;
68375;SDS011;55318;52.068;5.188;2023-03-31T00:18:31;3.2;;;1.6;;
68375;SDS011;55318;52.068;5.188;2023-03-31T00:21:45;5.5;;;2.31;;
68375;SDS011;55318;52.068;5.188;2023-03-31T00:23:23;4.0;;;1.7;;
68375;SDS011;55318;52.068;5.188;2023-03-31T00:24:59;5.5;;;1.6;;
68375;SDS011;55318;52.068;5.188;2023-03-31T00:28:13;6.1;;;1.8;;
68375;SDS011;55318;52.068;5.188;2023-03-31T00:29:49;5.8;;;1.8;;
68375;SDS011;55318;52.068;5.188;2023-03-31T00:31:26;5.6;;;1.9;;
68375;SDS011;55318;52.068;5.188;2023-03-31T00:33:03;6.9;;;2.21;;
68375;SDS011;55318;52.068;5.188;2023-03-31T00:36:16;4.7;;;1.9;;
68375;SDS011;55318;52.068;5.188;2023-03-31T00:37:53;4.5;;;2.1;;
68375;SDS011;55318;52.068;5.188;2023-03-31T00:39:29;4.3;;;1.9;;
68375;SDS011;55318;52.068;5.188;2023-03-31T00:42:42;2.8;;;1.2;;
68375;SDS011;55318;52.068;5.188;2023-03-31T00:44:19;5.0;;;2.1;;
68375;SDS011;55318;52.068;5.188;2023-03-31T00:45:59;8.6;;;2.0;;
68375;SDS011;55318;52.068;5.188;2023-03-31T00:47:46;2.1;;;1.11;;
68375;SDS011;55318;52.068;5.188;2023-03-31T00:51:06;9.1;;;1.9;;
68375;SDS011;55318;52.068;5.188;2023-03-31T00:52:42;5.7;;;2.21;;
68375;SDS011;55318;52.068;5.188;2023-03-31T00:54:20;3.8;;;1.6;;
68375;SDS011;55318;52.068;5.188;2023-03-31T00:56:01;4.8;;;2.1;;
68375;SDS011;55318;52.068;5.188;2023-03-31T00:59:22;5.5;;;1.7;;
68375;SDS011;55318;52.068;5.188;2023-03-31T01:01:02;5.11;;;2.5;;
68375;SDS011;55318;52.068;5.188;2023-03-31T01:02:39;4.5;;;1.4;;
68375;SDS011;55318;52.068;5.188;2023-03-31T01:05:53;3.0;;;1.3;;
68375;SDS011;55318;52.068;5.188;2023-03-31T01:07:33;3.7;;;1.3;;
68375;SDS011;55318;52.068;5.188;2023-03-31T01:09:16;7.6;;;1.6;;
68375;SDS011;55318;52.068;5.188;2023-03-31T01:10:54;2.1;;;1.11;;
68375;SDS011;55318;52.068;5.188;2023-03-31T01:14:15;2.5;;;1.11;;
68375;SDS011;55318;52.068;5.188;2023-03-31T01:15:51;5.7;;;1.5;;
68375;SDS011;55318;52.068;5.188;2023-03-31T01:17:28;4.1;;;1.6;;
68375;SDS011;55318;52.068;5.188;2023-03-31T01:19:05;1.9;;;1.3;;
68375;SDS011;55318;52.068;5.188;2023-03-31T01:24:05;2.8;;;1.0;;
68375;SDS011;55318;52.068;5.188;2023-03-31T01:28:07;4.7;;;1.5;;
68375;SDS011;55318;52.068;5.188;2023-03-31T01:30:10;5.3;;;1.8;;
68375;SDS011;55318;52.068;5.188;2023-03-31T01:35:13;5.8;;;1.9;;
68375;SDS011;55318;52.068;5.188;2023-03-31T01:38:40;6.7;;;1.5;;
68375;SDS011;55318;52.068;5.188;2023-03-31T01:41:47;4.41;;;1.4;;
68375;SDS011;55318;52.068;5.188;2023-03-31T01:43:32;6.9;;;2.0;;
68375;SDS011;55318;52.068;5.188;2023-03-31T01:45:18;8.5;;;1.7;;
68375;SDS011;55318;52.068;5.188;2023-03-31T01:47:05;7.3;;;1.4;;
68375;SDS011;55318;52.068;5.188;2023-03-31T01:48:48;4.8;;;1.8;;
68375;SDS011;55318;52.068;5.188;2023-03-31T01:50:34;3.7;;;2.0;;
68375;SDS011;55318;52.068;5.188;2023-03-31T01:54:01;6.0;;;2.21;;
68375;SDS011;55318;52.068;5.188;2023-03-31T01:55:45;4.3;;;2.7;;
68375;SDS011;55318;52.068;5.188;2023-03-31T01:57:32;10.0;;;2.4;;
68375;SDS011;55318;52.068;5.188;2023-03-31T01:59:12;4.41;;;2.1;;
68375;SDS011;55318;52.068;5.188;2023-03-31T02:00:53;3.7;;;1.7;;
68375;SDS011;55318;52.068;5.188;2023-03-31T02:04:19;6.0;;;2.5;;
68375;SDS011;55318;52.068;5.188;2023-03-31T02:05:58;5.8;;;2.0;;
68375;SDS011;55318;52.068;5.188;2023-03-31T02:07:44;4.8;;;1.9;;
68375;SDS011;55318;52.068;5.188;2023-03-31T02:09:27;4.5;;;1.7;;
68375;SDS011;55318;52.068;5.188;2023-03-31T02:12:45;4.41;;;2.4;;
68375;SDS011;55318;52.068;5.188;2023-03-31T02:14:25;2.9;;;1.8;;
68375;SDS011;55318;52.068;5.188;2023-03-31T02:16:08;3.4;;;1.8;;
68375;SDS011;55318;52.068;5.188;2023-03-31T02:17:49;5.8;;;1.9;;
68375;SDS011;55318;52.068;5.188;2023-03-31T02:21:10;6.7;;;2.21;;
68375;SDS011;55318;52.068;5.188;2023-03-31T02:22:47;4.1;;;1.4;;
68375;SDS011;55318;52.068;5.188;2023-03-31T02:24:28;4.7;;;2.0;;
68375;SDS011;55318;52.068;5.188;2023-03-31T02:26:09;4.8;;;2.21;;
68375;SDS011;55318;52.068;5.188;2023-03-31T02:29:31;4.3;;;1.7;;
68375;SDS011;55318;52.068;5.188;2023-03-31T02:31:12;5.3;;;2.0;;
68375;SDS011;55318;52.068;5.188;2023-03-31T02:33:01;2.6;;;1.7;;
68375;SDS011;55318;52.068;5.188;2023-03-31T02:34:38;2.6;;;1.7;;
68375;SDS011;55318;52.068;5.188;2023-03-31T02:37:50;3.5;;;1.6;;
68375;SDS011;55318;52.068;5.188;2023-03-31T02:39:27;7.4;;;2.1;;
68375;SDS011;55318;52.068;5.188;2023-03-31T02:41:08;9.71;;;2.6;;
68375;SDS011;55318;52.068;5.188;2023-03-31T02:42:45;8.0;;;2.6;;
68375;SDS011;55318;52.068;5.188;2023-03-31T02:45:59;8.31;;;3.4;;
68375;SDS011;55318;52.068;5.188;2023-03-31T02:47:36;4.91;;;1.7;;
68375;SDS011;55318;52.068;5.188;2023-03-31T02:49:12;12.9;;;2.0;;
68375;SDS011;55318;52.068;5.188;2023-03-31T02:53:47;5.2;;;2.7;;
68375;SDS011;55318;52.068;5.188;2023-03-31T02:55:43;6.7;;;2.0;;
68375;SDS011;55318;52.068;5.188;2023-03-31T02:57:53;3.2;;;1.8;;
68375;SDS011;55318;52.068;5.188;2023-03-31T03:00:36;6.0;;;1.5;;
68375;SDS011;55318;52.068;5.188;2023-03-31T03:02:28;2.8;;;1.6;;
68375;SDS011;55318;52.068;5.188;2023-03-31T03:04:24;7.5;;;2.6;;
68375;SDS011;55318;52.068;5.188;2023-03-31T03:06:40;4.2;;;1.8;;
68375;SDS011;55318;52.068;5.188;2023-03-31T03:08:28;6.0;;;1.9;;
68375;SDS011;55318;52.068;5.188;2023-03-31T03:10:19;8.0;;;1.8;;
68375;SDS011;55318;52.068;5.188;2023-03-31T03:12:10;5.11;;;1.9;;
68375;SDS011;55318;52.068;5.188;2023-03-31T03:15:42;5.8;;;1.5;;
68375;SDS011;55318;52.068;5.188;2023-03-31T03:17:23;3.5;;;1.6;;
68375;SDS011;55318;52.068;5.188;2023-03-31T03:19:04;4.5;;;2.1;;
68375;SDS011;55318;52.068;5.188;2023-03-31T03:20:42;6.5;;;1.9;;
68375;SDS011;55318;52.068;5.188;2023-03-31T03:23:55;7.0;;;2.21;;
68375;SDS011;55318;52.068;5.188;2023-03-31T03:25:31;4.2;;;1.6;;
68375;SDS011;55318;52.068;5.188;2023-03-31T03:27:07;5.2;;;2.1;;
68375;SDS011;55318;52.068;5.188;2023-03-31T03:28:43;6.4;;;1.6;;
68375;SDS011;55318;52.068;5.188;2023-03-31T03:31:55;5.2;;;2.1;;
68375;SDS011;55318;52.068;5.188;2023-03-31T03:33:31;6.2;;;2.21;;
68375;SDS011;55318;52.068;5.188;2023-03-31T03:35:08;4.7;;;1.7;;
68375;SDS011;55318;52.068;5.188;2023-03-31T03:38:22;5.2;;;1.5;;
68375;SDS011;55318;52.068;5.188;2023-03-31T03:39:58;5.6;;;2.31;;
68375;SDS011;55318;52.068;5.188;2023-03-31T03:41:34;3.0;;;1.6;;
68375;SDS011;55318;52.068;5.188;2023-03-31T03:44:47;5.6;;;1.7;;
68375;SDS011;55318;52.068;5.188;2023-03-31T03:46:23;5.5;;;2.0;;
68375;SDS011;55318;52.068;5.188;2023-03-31T03:48:00;5.4;;;1.2;;
68375;SDS011;55318;52.068;5.188;2023-03-31T03:51:12;3.9;;;1.3;;
68375;SDS011;55318;52.068;5.188;2023-03-31T03:52:48;5.9;;;1.9;;
68375;SDS011;55318;52.068;5.188;2023-03-31T03:54:24;5.8;;;1.8;;
68375;SDS011;55318;52.068;5.188;2023-03-31T03:56:00;6.6;;;1.9;;
68375;SDS011;55318;52.068;5.188;2023-03-31T03:59:13;7.4;;;2.7;;
68375;SDS011;55318;52.068;5.188;2023-03-31T04:00:50;7.9;;;2.31;;
68375;SDS011;55318;52.068;5.188;2023-03-31T04:02:26;4.91;;;2.4;;
68375;SDS011;55318;52.068;5.188;2023-03-31T04:05:38;6.1;;;1.8;;
68375;SDS011;55318;52.068;5.188;2023-03-31T04:07:14;2.6;;;1.5;;
68375;SDS011;55318;52.068;5.188;2023-03-31T04:08:50;3.4;;;0.9;;
68375;SDS011;55318;52.068;5.188;2023-03-31T04:12:03;4.61;;;1.7;;
68375;SDS011;55318;52.068;5.188;2023-03-31T04:13:39;3.8;;;1.3;;
68375;SDS011;55318;52.068;5.188;2023-03-31T04:15:15;3.6;;;1.6;;
68375;SDS011;55318;52.068;5.188;2023-03-31T04:16:51;3.2;;;1.3;;
68375;SDS011;55318;52.068;5.188;2023-03-31T04:20:04;3.1;;;0.9;;
68375;SDS011;55318;52.068;5.188;2023-03-31T04:21:43;1.9;;;1.2;;
68375;SDS011;55318;52.068;5.188;2023-03-31T04:23:20;2.6;;;1.0;;
68375;SDS011;55318;52.068;5.188;2023-03-31T04:26:33;5.7;;;1.5;;
68375;SDS011;55318;52.068;5.188;2023-03-31T04:28:10;2.5;;;1.11;;
68375;SDS011;55318;52.068;5.188;2023-03-31T04:29:46;3.5;;;1.11;;
68375;SDS011;55318;52.068;5.188;2023-03-31T04:32:59;4.1;;;1.11;;
68375;SDS011;55318;52.068;5.188;2023-03-31T04:34:37;2.31;;;1.3;;
68375;SDS011;55318;52.068;5.188;2023-03-31T04:36:13;3.0;;;1.11;;
68375;SDS011;55318;52.068;5.188;2023-03-31T04:37:50;5.3;;;1.11;;
68375;SDS011;55318;52.068;5.188;2023-03-31T04:41:04;3.5;;;1.0;;
68375;SDS011;55318;52.068;5.188;2023-03-31T04:42:40;3.2;;;1.2;;
68375;SDS011;55318;52.068;5.188;2023-03-31T04:44:16;1.8;;;1.11;;
68375;SDS011;55318;52.068;5.188;2023-03-31T04:47:28;5.4;;;1.7;;
68375;SDS011;55318;52.068;5.188;2023-03-31T04:49:04;4.7;;;1.2;;
68375;SDS011;55318;52.068;5.188;2023-03-31T04:50:40;4.7;;;1.7;;
68375;SDS011;55318;52.068;5.188;2023-03-31T04:53:52;2.4;;;2.0;;
68375;SDS011;55318;52.068;5.188;2023-03-31T04:55:28;3.9;;;1.8;;
68375;SDS011;55318;52.068;5.188;2023-03-31T04:57:05;6.0;;;1.6;;
68375;SDS011;55318;52.068;5.188;2023-03-31T04:58:41;2.4;;;1.11;;
68375;SDS011;55318;52.068;5.188;2023-03-31T05:01:56;5.0;;;1.7;;
68375;SDS011;55318;52.068;5.188;2023-03-31T05:03:32;5.6;;;1.7;;
68375;SDS011;55318;52.068;5.188;2023-03-31T05:05:09;3.8;;;1.11;;
68375;SDS011;55318;52.068;5.188;2023-03-31T05:08:21;6.0;;;1.9;;
68375;SDS011;55318;52.068;5.188;2023-03-31T05:09:57;3.5;;;1.5;;
68375;SDS011;55318;52.068;5.188;2023-03-31T05:11:33;3.5;;;1.6;;
68375;SDS011;55318;52.068;5.188;2023-03-31T05:14:46;1.8;;;1.0;;
68375;SDS011;55318;52.068;5.188;2023-03-31T05:16:22;5.8;;;1.5;;
68375;SDS011;55318;52.068;5.188;2023-03-31T05:17:58;4.8;;;1.4;;
68375;SDS011;55318;52.068;5.188;2023-03-31T05:19:35;4.3;;;1.11;;
68375;SDS011;55318;52.068;5.188;2023-03-31T05:22:49;1.5;;;1.11;;
68375;SDS011;55318;52.068;5.188;2023-03-31T05:24:26;3.1;;;1.2;;
68375;SDS011;55318;52.068;5.188;2023-03-31T05:26:03;6.3;;;1.2;;
68375;SDS011;55318;52.068;5.188;2023-03-31T05:29:16;1.9;;;1.0;;
68375;SDS011;55318;52.068;5.188;2023-03-31T05:30:52;2.8;;;1.11;;
68375;SDS011;55318;52.068;5.188;2023-03-31T05:32:28;4.7;;;1.11;;
68375;SDS011;55318;52.068;5.188;2023-03-31T05:35:41;2.31;;;1.4;;
68375;SDS011;55318;52.068;5.188;2023-03-31T05:37:19;2.6;;;1.0;;
68375;SDS011;55318;52.068;5.188;2023-03-31T05:38:54;2.7;;;1.5;;
68375;SDS011;55318;52.068;5.188;2023-03-31T05:40:31;4.0;;;1.3;;
68375;SDS011;55318;52.068;5.188;2023-03-31T05:43:43;2.4;;;1.0;;
68375;SDS011;55318;52.068;5.188;2023-03-31T05:45:19;4.5;;;1.2;;
68375;SDS011;55318;52.068;5.188;2023-03-31T05:46:55;3.6;;;1.4;;
68375;SDS011;55318;52.068;5.188;2023-03-31T05:50:08;4.3;;;1.4;;
68375;SDS011;55318;52.068;5.188;2023-03-31T05:53:22;3.4;;;1.2;;
68375;SDS011;55318;52.068;5.188;2023-03-31T05:56:34;4.2;;;1.11;;
68375;SDS011;55318;52.068;5.188;2023-03-31T05:58:10;6.6;;;2.1;;
68375;SDS011;55318;52.068;5.188;2023-03-31T05:59:46;5.4;;;1.5;;
68375;SDS011;55318;52.068;5.188;2023-03-31T06:04:34;5.0;;;1.11;;
68375;SDS011;55318;52.068;5.188;2023-03-31T06:06:11;7.6;;;1.2;;
68375;SDS011;55318;52.068;5.188;2023-03-31T06:07:48;4.61;;;1.11;;
68375;SDS011;55318;52.068;5.188;2023-03-31T06:11:03;1.4;;;0.8;;
68375;SDS011;55318;52.068;5.188;2023-03-31T06:12:40;2.4;;;1.11;;
68375;SDS011;55318;52.068;5.188;2023-03-31T06:14:16;1.9;;;1.0;;
68375;SDS011;55318;52.068;5.188;2023-03-31T06:17:29;6.0;;;1.0;;
68375;SDS011;55318;52.068;5.188;2023-03-31T06:19:06;3.4;;;0.9;;
68375;SDS011;55318;52.068;5.188;2023-03-31T06:20:43;3.1;;;0.9;;
68375;SDS011;55318;52.068;5.188;2023-03-31T06:23:55;7.6;;;1.7;;
68375;SDS011;55318;52.068;5.188;2023-03-31T06:25:31;3.3;;;1.5;;
68375;SDS011;55318;52.068;5.188;2023-03-31T06:27:07;2.5;;;1.3;;
68375;SDS011;55318;52.068;5.188;2023-03-31T06:28:43;1.8;;;0.6;;
68375;SDS011;55318;52.068;5.188;2023-03-31T06:31:55;3.1;;;1.0;;
68375;SDS011;55318;52.068;5.188;2023-03-31T06:33:31;4.0;;;1.0;;
68375;SDS011;55318;52.068;5.188;2023-03-31T06:35:08;1.7;;;0.7;;
68375;SDS011;55318;52.068;5.188;2023-03-31T06:38:19;2.1;;;1.11;;
68375;SDS011;55318;52.068;5.188;2023-03-31T06:39:55;1.8;;;0.8;;
68375;SDS011;55318;52.068;5.188;2023-03-31T06:41:32;2.6;;;0.7;;
68375;SDS011;55318;52.068;5.188;2023-03-31T06:44:44;1.2;;;0.6;;
68375;SDS011;55318;52.068;5.188;2023-03-31T06:46:20;1.3;;;0.9;;
68375;SDS011;55318;52.068;5.188;2023-03-31T06:47:56;1.11;;;0.5;;
68375;SDS011;55318;52.068;5.188;2023-03-31T06:49:32;3.3;;;0.9;;
68375;SDS011;55318;52.068;5.188;2023-03-31T06:52:45;1.0;;;0.5;;
68375;SDS011;55318;52.068;5.188;2023-03-31T06:54:22;3.5;;;0.6;;
68375;SDS011;55318;52.068;5.188;2023-03-31T06:55:58;3.7;;;0.5;;
68375;SDS011;55318;52.068;5.188;2023-03-31T06:59:11;1.4;;;0.7;;
68375;SDS011;55318;52.068;5.188;2023-03-31T07:00:47;0.7;;;0.4;;
68375;SDS011;55318;52.068;5.188;2023-03-31T07:02:23;3.1;;;0.7;;
68375;SDS011;55318;52.068;5.188;2023-03-31T07:05:34;1.5;;;0.6;;
68375;SDS011;55318;52.068;5.188;2023-03-31T07:07:11;3.4;;;0.9;;
68375;SDS011;55318;52.068;5.188;2023-03-31T07:08:47;1.11;;;0.5;;
68375;SDS011;55318;52.068;5.188;2023-03-31T07:12:01;4.7;;;2.1;;
68375;SDS011;55318;52.068;5.188;2023-03-31T07:13:37;2.0;;;0.8;;
68375;SDS011;55318;52.068;5.188;2023-03-31T07:15:14;3.2;;;0.8;;
68375;SDS011;55318;52.068;5.188;2023-03-31T07:16:51;1.11;;;0.8;;
68375;SDS011;55318;52.068;5.188;2023-03-31T07:20:02;0.7;;;0.4;;
68375;SDS011;55318;52.068;5.188;2023-03-31T07:21:40;1.5;;;0.8;;
68375;SDS011;55318;52.068;5.188;2023-03-31T07:23:16;3.1;;;0.7;;
68375;SDS011;55318;52.068;5.188;2023-03-31T07:26:28;1.9;;;0.7;;
68375;SDS011;55318;52.068;5.188;2023-03-31T07:28:05;1.5;;;0.7;;
68375;SDS011;55318;52.068;5.188;2023-03-31T07:29:40;3.5;;;0.8;;
68375;SDS011;55318;52.068;5.188;2023-03-31T07:32:53;2.6;;;1.2;;
68375;SDS011;55318;52.068;5.188;2023-03-31T07:34:29;0.7;;;0.5;;
68375;SDS011;55318;52.068;5.188;2023-03-31T07:36:06;3.3;;;0.9;;
68375;SDS011;55318;52.068;5.188;2023-03-31T07:37:44;3.2;;;0.8;;
68375;SDS011;55318;52.068;5.188;2023-03-31T07:40:58;3.8;;;0.9;;
68375;SDS011;55318;52.068;5.188;2023-03-31T07:42:35;1.4;;;0.8;;
68375;SDS011;55318;52.068;5.188;2023-03-31T07:44:11;4.61;;;1.11;;
68375;SDS011;55318;52.068;5.188;2023-03-31T07:47:23;2.0;;;1.11;;
68375;SDS011;55318;52.068;5.188;2023-03-31T07:49:00;3.1;;;0.8;;
68375;SDS011;55318;52.068;5.188;2023-03-31T07:50:37;1.0;;;0.9;;
68375;SDS011;55318;52.068;5.188;2023-03-31T07:53:49;1.5;;;1.4;;
68375;SDS011;55318;52.068;5.188;2023-03-31T07:55:25;3.3;;;1.2;;
68375;SDS011;55318;52.068;5.188;2023-03-31T07:57:01;3.6;;;0.7;;
68375;SDS011;55318;52.068;5.188;2023-03-31T07:58:37;2.7;;;0.6;;
68375;SDS011;55318;52.068;5.188;2023-03-31T08:01:50;2.4;;;0.7;;
68375;SDS011;55318;52.068;5.188;2023-03-31T08:03:27;3.1;;;1.0;;
68375;SDS011;55318;52.068;5.188;2023-03-31T08:05:03;3.5;;;1.3;;
68375;SDS011;55318;52.068;5.188;2023-03-31T08:08:16;3.6;;;1.5;;
68375;SDS011;55318;52.068;5.188;2023-03-31T08:09:52;5.9;;;1.3;;
68375;SDS011;55318;52.068;5.188;2023-03-31T08:11:28;4.2;;;1.0;;
68375;SDS011;55318;52.068;5.188;2023-03-31T08:14:41;5.3;;;1.5;;
68375;SDS011;55318;52.068;5.188;2023-03-31T08:16:17;4.0;;;1.0;;
68375;SDS011;55318;52.068;5.188;2023-03-31T08:17:53;2.1;;;1.0;;
68375;SDS011;55318;52.068;5.188;2023-03-31T08:19:30;3.4;;;1.3;;
68375;SDS011;55318;52.068;5.188;2023-03-31T08:22:42;4.41;;;1.3;;
68375;SDS011;55318;52.068;5.188;2023-03-31T08:24:18;1.7;;;1.11;;
68375;SDS011;55318;52.068;5.188;2023-03-31T08:26:04;2.31;;;1.2;;
68375;SDS011;55318;52.068;5.188;2023-03-31T08:29:20;5.6;;;1.9;;
68375;SDS011;55318;52.068;5.188;2023-03-31T08:31:01;6.2;;;2.31;;
68375;SDS011;55318;52.068;5.188;2023-03-31T08:32:38;2.8;;;1.8;;
68375;SDS011;55318;52.068;5.188;2023-03-31T08:34:14;2.1;;;1.7;;
68375;SDS011;55318;52.068;5.188;2023-03-31T08:37:27;3.6;;;1.5;;
68375;SDS011;55318;52.068;5.188;2023-03-31T08:39:04;4.0;;;1.5;;
68375;SDS011;55318;52.068;5.188;2023-03-31T08:40:40;2.7;;;1.5;;
68375;SDS011;55318;52.068;5.188;2023-03-31T08:44:00;5.9;;;2.5;;
68375;SDS011;55318;52.068;5.188;2023-03-31T08:45:41;2.6;;;1.2;;
68375;SDS011;55318;52.068;5.188;2023-03-31T08:47:21;5.8;;;1.7;;
68375;SDS011;55318;52.068;5.188;2023-03-31T08:49:01;2.1;;;1.5;;
68375;SDS011;55318;52.068;5.188;2023-03-31T08:52:23;6.1;;;2.1;;
68375;SDS011;55318;52.068;5.188;2023-03-31T08:54:06;5.2;;;1.8;;
68375;SDS011;55318;52.068;5.188;2023-03-31T08:55:51;5.9;;;1.6;;
68375;SDS011;55318;52.068;5.188;2023-03-31T08:57:31;10.21;;;2.8;;
68375;SDS011;55318;52.068;5.188;2023-03-31T08:59:16;6.0;;;2.21;;
68375;SDS011;55318;52.068;5.188;2023-03-31T09:02:54;6.1;;;1.9;;
68375;SDS011;55318;52.068;5.188;2023-03-31T09:04:44;7.0;;;1.9;;
68375;SDS011;55318;52.068;5.188;2023-03-31T09:06:47;7.9;;;2.5;;
68375;SDS011;55318;52.068;5.188;2023-03-31T09:08:33;6.7;;;2.4;;
68375;SDS011;55318;52.068;5.188;2023-03-31T09:10:18;3.9;;;2.1;;
68375;SDS011;55318;52.068;5.188;2023-03-31T09:12:07;10.21;;;2.4;;
68375;SDS011;55318;52.068;5.188;2023-03-31T09:15:53;12.9;;;3.6;;
68375;SDS011;55318;52.068;5.188;2023-03-31T09:17:38;4.5;;;2.0;;
68375;SDS011;55318;52.068;5.188;2023-03-31T09:19:19;4.2;;;2.4;;
68375;SDS011;55318;52.068;5.188;2023-03-31T09:21:14;10.21;;;2.7;;
68375;SDS011;55318;52.068;5.188;2023-03-31T09:22:56;6.8;;;3.0;;
68375;SDS011;55318;52.068;5.188;2023-03-31T09:24:44;10.21;;;3.2;;
68375;SDS011;55318;52.068;5.188;2023-03-31T09:26:29;9.6;;;2.8;;
68375;SDS011;55318;52.068;5.188;2023-03-31T09:29:54;8.81;;;2.5;;
68375;SDS011;55318;52.068;5.188;2023-03-31T09:31:36;8.71;;;2.0;;
68375;SDS011;55318;52.068;5.188;2023-03-31T09:33:18;10.6;;;3.3;;
68375;SDS011;55318;52.068;5.188;2023-03-31T09:35:11;8.0;;;2.4;;
68375;SDS011;55318;52.068;5.188;2023-03-31T09:36:53;6.5;;;1.3;;
68375;SDS011;55318;52.068;5.188;2023-03-31T09:40:05;8.31;;;2.21;;
68375;SDS011;55318;52.068;5.188;2023-03-31T09:41:50;8.1;;;2.0;;
68375;SDS011;55318;52.068;5.188;2023-03-31T09:43:29;7.5;;;2.4;;
68375;SDS011;55318;52.068;5.188;2023-03-31T09:46:49;6.4;;;2.21;;
68375;SDS011;55318;52.068;5.188;2023-03-31T09:48:29;5.8;;;1.8;;
68375;SDS011;55318;52.068;5.188;2023-03-31T09:50:10;3.7;;;1.6;;
68375;SDS011;55318;52.068;5.188;2023-03-31T09:51:48;4.7;;;1.5;;
68375;SDS011;55318;52.068;5.188;2023-03-31T09:55:19;8.4;;;3.2;;
68375;SDS011;55318;52.068;5.188;2023-03-31T09:56:57;5.3;;;2.0;;
68375;SDS011;55318;52.068;5.188;2023-03-31T09:58:38;5.11;;;1.8;;
68375;SDS011;55318;52.068;5.188;2023-03-31T10:00:16;5.11;;;2.21;;
68375;SDS011;55318;52.068;5.188;2023-03-31T10:03:40;14.7;;;2.6;;
68375;SDS011;55318;52.068;5.188;2023-03-31T10:05:25;8.9;;;2.21;;
68375;SDS011;55318;52.068;5.188;2023-03-31T10:07:04;4.41;;;1.6;;
68375;SDS011;55318;52.068;5.188;2023-03-31T10:08:40;5.0;;;1.8;;
68375;SDS011;55318;52.068;5.188;2023-03-31T10:10:25;6.8;;;2.0;;
68375;SDS011;55318;52.068;5.188;2023-03-31T10:13:52;13.1;;;2.5;;
68375;SDS011;55318;52.068;5.188;2023-03-31T10:15:36;5.9;;;1.7;;
68375;SDS011;55318;52.068;5.188;2023-03-31T10:17:13;6.6;;;2.1;;
68375;SDS011;55318;52.068;5.188;2023-03-31T10:18:52;7.3;;;2.31;;
68375;SDS011;55318;52.068;5.188;2023-03-31T10:22:13;9.5;;;2.9;;
68375;SDS011;55318;52.068;5.188;2023-03-31T10:23:51;9.6;;;2.0;;
68375;SDS011;55318;52.068;5.188;2023-03-31T10:25:28;7.2;;;1.9;;
68375;SDS011;55318;52.068;5.188;2023-03-31T10:28:49;6.0;;;2.7;;
68375;SDS011;55318;52.068;5.188;2023-03-31T10:30:28;6.6;;;2.0;;
68375;SDS011;55318;52.068;5.188;2023-03-31T10:32:12;9.0;;;2.7;;
68375;SDS011;55318;52.068;5.188;2023-03-31T10:33:57;5.5;;;1.6;;
68375;SDS011;55318;52.068;5.188;2023-03-31T10:35:34;6.5;;;2.1;;
68375;SDS011;55318;52.068;5.188;2023-03-31T10:38:52;8.9;;;1.8;;
68375;SDS011;55318;52.068;5.188;2023-03-31T10:40:30;6.7;;;2.5;;
68375;SDS011;55318;52.068;5.188;2023-03-31T10:42:08;6.0;;;1.7;;
68375;SDS011;55318;52.068;5.188;2023-03-31T10:45:25;6.3;;;1.5;;
68375;SDS011;55318;52.068;5.188;2023-03-31T10:47:05;4.61;;;1.5;;
68375;SDS011;55318;52.068;5.188;2023-03-31T10:48:53;5.9;;;1.9;;
68375;SDS011;55318;52.068;5.188;2023-03-31T10:50:30;4.1;;;1.5;;
68375;SDS011;55318;52.068;5.188;2023-03-31T10:53:54;5.6;;;2.0;;
68375;SDS011;55318;52.068;5.188;2023-03-31T10:55:35;8.31;;;3.0;;
68375;SDS011;55318;52.068;5.188;2023-03-31T10:58:16;12.5;;;2.0;;
68375;SDS011;55318;52.068;5.188;2023-03-31T11:00:09;5.0;;;2.5;;
68375;SDS011;55318;52.068;5.188;2023-03-31T11:01:56;6.1;;;2.21;;
68375;SDS011;55318;52.068;5.188;2023-03-31T11:05:10;5.4;;;1.8;;
68375;SDS011;55318;52.068;5.188;2023-03-31T11:06:55;4.1;;;1.4;;
68375;SDS011;55318;52.068;5.188;2023-03-31T11:10:36;4.8;;;2.1;;
68375;SDS011;55318;52.068;5.188;2023-03-31T11:12:32;6.2;;;2.1;;
68375;SDS011;55318;52.068;5.188;2023-03-31T11:14:16;3.3;;;1.6;;
68375;SDS011;55318;52.068;5.188;2023-03-31T11:16:04;4.91;;;1.9;;
68375;SDS011;55318;52.068;5.188;2023-03-31T11:17:54;7.1;;;2.31;;
68375;SDS011;55318;52.068;5.188;2023-03-31T11:19:44;4.1;;;1.6;;
68375;SDS011;55318;52.068;5.188;2023-03-31T11:21:33;9.1;;;1.11;;
68375;SDS011;55318;52.068;5.188;2023-03-31T11:25:11;6.7;;;1.3;;
68375;SDS011;55318;52.068;5.188;2023-03-31T11:26:59;7.7;;;1.8;;
68375;SDS011;55318;52.068;5.188;2023-03-31T11:28:51;3.2;;;1.4;;
68375;SDS011;55318;52.068;5.188;2023-03-31T11:30:38;5.9;;;1.2;;
68375;SDS011;55318;52.068;5.188;2023-03-31T11:32:27;5.2;;;1.9;;
68375;SDS011;55318;52.068;5.188;2023-03-31T11:34:24;5.7;;;2.21;;
68375;SDS011;55318;52.068;5.188;2023-03-31T11:36:42;4.8;;;1.8;;
68375;SDS011;55318;52.068;5.188;2023-03-31T11:38:46;11.4;;;1.9;;
68375;SDS011;55318;52.068;5.188;2023-03-31T11:40:38;5.4;;;2.6;;
68375;SDS011;55318;52.068;5.188;2023-03-31T11:42:31;4.8;;;1.6;;
68375;SDS011;55318;52.068;5.188;2023-03-31T11:45:52;5.0;;;1.8;;
68375;SDS011;55318;52.068;5.188;2023-03-31T11:47:33;5.4;;;1.6;;
68375;SDS011;55318;52.068;5.188;2023-03-31T11:49:14;6.9;;;2.1;;
68375;SDS011;55318;52.068;5.188;2023-03-31T11:50:53;8.0;;;1.6;;
68375;SDS011;55318;52.068;5.188;2023-03-31T11:54:14;4.3;;;1.6;;
68375;SDS011;55318;52.068;5.188;2023-03-31T11:55:55;5.0;;;1.4;;
68375;SDS011;55318;52.068;5.188;2023-03-31T11:57:35;7.1;;;2.21;;
68375;SDS011;55318;52.068;5.188;2023-03-31T11:59:16;4.3;;;1.9;;
68375;SDS011;55318;52.068;5.188;2023-03-31T12:02:43;4.41;;;1.11;;
68375;SDS011;55318;52.068;5.188;2023-03-31T12:04:27;7.9;;;1.8;;
68375;SDS011;55318;52.068;5.188;2023-03-31T12:06:10;4.0;;;1.3;;
68375;SDS011;55318;52.068;5.188;2023-03-31T12:07:49;5.4;;;1.6;;
68375;SDS011;55318;52.068;5.188;2023-03-31T12:11:28;3.7;;;1.11;;
68375;SDS011;55318;52.068;5.188;2023-03-31T12:13:17;3.9;;;1.6;;
68375;SDS011;55318;52.068;5.188;2023-03-31T12:15:11;3.9;;;1.3;;
68375;SDS011;55318;52.068;5.188;2023-03-31T12:16:54;5.5;;;1.4;;
68375;SDS011;55318;52.068;5.188;2023-03-31T12:18:37;1.9;;;1.2;;
68375;SDS011;55318;52.068;5.188;2023-03-31T12:20:22;3.3;;;0.9;;
68375;SDS011;55318;52.068;5.188;2023-03-31T12:23:49;1.9;;;1.2;;
68375;SDS011;55318;52.068;5.188;2023-03-31T12:25:25;3.0;;;1.7;;
68375;SDS011;55318;52.068;5.188;2023-03-31T12:27:21;6.0;;;1.6;;
68375;SDS011;55318;52.068;5.188;2023-03-31T12:29:02;5.3;;;1.4;;
68375;SDS011;55318;52.068;5.188;2023-03-31T12:30:47;3.9;;;1.4;;
68375;SDS011;55318;52.068;5.188;2023-03-31T12:34:05;4.7;;;1.3;;
68375;SDS011;55318;52.068;5.188;2023-03-31T12:35:51;5.4;;;2.1;;
68375;SDS011;55318;52.068;5.188;2023-03-31T12:40:10;2.6;;;0.9;;
68375;SDS011;55318;52.068;5.188;2023-03-31T12:42:00;5.8;;;1.6;;
68375;SDS011;55318;52.068;5.188;2023-03-31T12:43:58;5.0;;;1.4;;
68375;SDS011;55318;52.068;5.188;2023-03-31T12:45:53;2.0;;;0.8;;
68375;SDS011;55318;52.068;5.188;2023-03-31T12:47:43;5.7;;;1.0;;
68375;SDS011;55318;52.068;5.188;2023-03-31T12:49:46;3.9;;;1.4;;
68375;SDS011;55318;52.068;5.188;2023-03-31T12:51:38;4.1;;;2.1;;
68375;SDS011;55318;52.068;5.188;2023-03-31T12:53:35;5.4;;;2.21;;
68375;SDS011;55318;52.068;5.188;2023-03-31T12:57:18;6.3;;;1.5;;
68375;SDS011;55318;52.068;5.188;2023-03-31T12:59:02;5.3;;;1.5;;
68375;SDS011;55318;52.068;5.188;2023-03-31T13:01:00;3.7;;;1.4;;
68375;SDS011;55318;52.068;5.188;2023-03-31T13:02:40;3.8;;;1.9;;
68375;SDS011;55318;52.068;5.188;2023-03-31T13:04:17;6.4;;;1.5;;
68375;SDS011;55318;52.068;5.188;2023-03-31T13:07:33;4.41;;;2.31;;
68375;SDS011;55318;52.068;5.188;2023-03-31T13:09:47;4.41;;;1.8;;
68375;SDS011;55318;52.068;5.188;2023-03-31T13:11:33;4.3;;;1.11;;
68375;SDS011;55318;52.068;5.188;2023-03-31T13:13:13;3.9;;;2.1;;
68375;SDS011;55318;52.068;5.188;2023-03-31T13:14:52;5.3;;;2.5;;